createdAt,value
2018-09-21T06:27:19.573Z,16.73
2018-09-21T06:49:04.790Z,11.23
2018-09-21T06:51:33.799Z,10.97
2018-09-21T06:54:02.141Z,19.87
2018-09-21T06:56:30.463Z,11.83
2018-09-21T06:58:58.791Z,12.20
2018-09-21T07:01:27.257Z,17.23
2018-09-21T07:03:55.485Z,18.13
2018-09-21T07:06:23.790Z,19.47
2018-09-21T07:08:52.056Z,13.63
2018-09-21T07:11:20.751Z,13.87
2018-09-21T07:13:49.442Z,14.83
2018-09-21T07:16:17.711Z,17.33
2018-09-21T07:18:46.979Z,11.90
2018-09-21T07:21:15.294Z,16.63
2018-09-21T07:23:43.610Z,16.97
2018-09-21T07:26:11.944Z,23.20
2018-09-21T07:28:40.286Z,16.63
2018-09-21T07:31:08.636Z,16.20
2018-09-21T07:33:37.217Z,13.60
2018-09-21T07:36:05.479Z,16.30
2018-09-21T07:38:33.851Z,13.47
2018-09-21T07:41:02.562Z,31.87
2018-09-21T07:43:30.821Z,11.17
2018-09-21T07:45:59.133Z,10.17
2018-09-21T07:48:27.404Z,17.03
2018-09-21T07:50:55.658Z,9.97
2018-09-21T07:53:23.955Z,9.30
2018-09-21T07:55:52.572Z,23.53
2018-09-21T07:58:20.875Z,14.47
2018-09-21T08:00:49.635Z,23.67
2018-09-21T08:03:17.955Z,31.97
2018-09-21T08:05:46.273Z,12.80
2018-09-21T08:08:14.556Z,13.13
2018-09-21T08:10:43.240Z,17.87
2018-09-21T08:13:11.938Z,12.63
2018-09-21T08:15:40.593Z,21.03
2018-09-21T08:18:09.269Z,19.60
2018-09-21T08:20:37.944Z,18.07
2018-09-21T08:23:07.049Z,16.43
2018-09-21T08:25:35.738Z,29.20
2018-09-21T08:28:04.435Z,13.93
2018-09-21T08:30:33.030Z,19.23
2018-09-21T08:33:01.725Z,12.00
2018-09-21T08:35:30.403Z,15.10
2018-09-21T08:37:59.049Z,14.63
2018-09-21T08:40:27.725Z,15.30
2018-09-21T08:42:56.702Z,9.43
2018-09-21T08:45:25.363Z,15.40
2018-09-21T08:47:54.448Z,54.20
2018-09-21T08:50:23.074Z,8.50
2018-09-21T08:52:51.740Z,11.20
2018-09-21T08:55:20.457Z,12.93
2018-09-21T08:57:49.084Z,15.87
2018-09-21T09:00:17.736Z,8.40
2018-09-21T09:02:46.397Z,11.73
2018-09-21T09:05:15.165Z,9.07
2018-09-21T09:07:43.861Z,12.27
2018-09-21T09:10:13.466Z,10.30
2018-09-21T09:12:42.107Z,13.43
2018-09-21T09:15:10.771Z,15.10
2018-09-21T09:17:39.366Z,10.40
2018-09-21T09:20:08.799Z,14.93
2018-09-21T09:22:37.361Z,17.47
2018-09-21T09:25:06.836Z,13.50
2018-09-21T09:27:35.576Z,16.13
2018-09-21T09:30:04.838Z,24.30
2018-09-21T09:32:33.393Z,11.87
2018-09-21T09:35:01.981Z,10.83
2018-09-21T09:37:30.544Z,13.50
2018-09-21T09:39:59.150Z,8.53
2018-09-21T09:42:27.709Z,11.50
2018-09-21T09:44:56.301Z,7.40
2018-09-21T09:47:24.874Z,11.30
2018-09-21T09:49:53.475Z,10.93
2018-09-21T09:52:22.069Z,20.30
2018-09-21T09:54:50.719Z,13.73
2018-09-21T09:57:19.281Z,7.47
2018-09-21T09:59:47.900Z,28.33
2018-09-21T10:02:16.477Z,11.40
2018-09-21T10:04:45.184Z,10.60
2018-09-21T10:07:13.763Z,15.30
2018-09-21T10:09:42.313Z,6.83
2018-09-21T10:12:10.883Z,9.43
2018-09-21T10:14:39.528Z,10.87
2018-09-21T10:17:08.646Z,8.80
2018-09-21T10:19:38.270Z,11.87
2018-09-21T10:22:07.550Z,9.90
2018-09-21T10:24:36.340Z,9.13
2018-09-21T10:27:05.302Z,14.93
2018-09-21T10:29:33.972Z,7.87
2018-09-21T10:32:02.628Z,8.13
2018-09-21T10:34:31.295Z,10.97
2018-09-21T10:36:59.880Z,6.70
2018-09-21T10:39:28.480Z,10.20
2018-09-21T10:41:57.263Z,7.80
2018-09-21T10:44:25.918Z,7.30
2018-09-21T10:46:54.539Z,7.70
2018-09-21T10:49:23.242Z,13.40
2018-09-21T10:51:51.963Z,16.37
2018-09-21T10:54:20.755Z,9.63
2018-09-21T10:56:49.485Z,7.90
2018-09-21T10:59:18.158Z,8.53
2018-09-21T11:01:46.775Z,7.53
2018-09-21T11:04:15.991Z,16.67
2018-09-21T11:06:44.592Z,7.73
2018-09-21T11:09:13.249Z,11.00
2018-09-21T11:11:42.171Z,10.83
2018-09-21T11:14:10.897Z,10.07
2018-09-21T11:16:39.454Z,7.27
2018-09-21T11:19:08.106Z,9.50
2018-09-21T11:21:36.674Z,9.90
2018-09-21T11:24:05.255Z,11.70
2018-09-21T11:26:33.845Z,10.83
2018-09-21T11:29:02.429Z,6.93
2018-09-21T11:31:30.987Z,9.93
2018-09-21T11:33:59.681Z,17.53
2018-09-21T11:36:28.606Z,7.67
2018-09-21T11:38:57.394Z,6.57
2018-09-21T11:41:26.109Z,8.80
2018-09-21T11:43:54.836Z,6.73
2018-09-21T11:46:23.572Z,6.47
2018-09-21T11:48:52.215Z,8.27
2018-09-21T11:51:21.616Z,6.20
2018-09-21T11:53:50.233Z,10.63
2018-09-21T11:56:18.921Z,9.53
2018-09-21T11:58:47.625Z,11.13
2018-09-21T12:01:16.355Z,21.17
2018-09-21T12:03:45.094Z,6.60
2018-09-21T12:06:13.770Z,6.60
2018-09-21T12:08:43.164Z,6.00
2018-09-21T12:11:11.784Z,8.90
2018-09-21T12:13:40.401Z,10.20
2018-09-21T12:16:09.035Z,5.70
2018-09-21T12:18:37.634Z,8.43
2018-09-21T12:21:06.361Z,8.70
2018-09-21T12:23:34.958Z,5.40
2018-09-21T12:26:03.580Z,5.20
2018-09-21T12:28:32.181Z,7.10
2018-09-21T12:31:00.818Z,8.97
2018-09-21T12:33:29.426Z,8.77
2018-09-21T12:35:58.134Z,6.80
2018-09-21T12:38:26.696Z,9.33
2018-09-21T12:40:55.311Z,13.47
2018-09-21T12:43:23.884Z,6.53
2018-09-21T12:45:52.476Z,13.73
2018-09-21T12:48:21.081Z,5.47
2018-09-21T12:50:49.707Z,16.73
2018-09-21T12:53:18.362Z,5.47
2018-09-21T12:55:46.968Z,7.80
2018-09-21T12:58:15.676Z,5.47
2018-09-21T13:00:49.536Z,5.70
2018-09-21T13:03:18.171Z,7.57
2018-09-21T13:05:46.848Z,6.03
2018-09-21T13:08:15.510Z,5.00
2018-09-21T13:10:44.127Z,5.50
2018-09-21T13:13:12.726Z,8.17
2018-09-21T13:15:41.353Z,5.20
2018-09-21T13:18:09.944Z,6.30
2018-09-21T13:20:38.535Z,7.37
2018-09-21T13:23:07.193Z,9.23
2018-09-21T13:25:35.857Z,7.27
2018-09-21T13:28:04.460Z,11.80
2018-09-21T13:30:33.043Z,4.67
2018-09-21T13:33:03.805Z,8.97
2018-09-21T13:35:33.000Z,9.93
2018-09-21T13:38:01.725Z,15.40
2018-09-21T13:40:30.321Z,5.57
2018-09-21T13:42:58.962Z,10.70
2018-09-21T13:45:27.562Z,8.70
2018-09-21T13:47:56.169Z,10.70
2018-09-21T13:50:24.824Z,9.83
2018-09-21T13:52:53.712Z,6.10
2018-09-21T13:55:22.881Z,5.87
2018-09-21T13:57:51.548Z,15.70
2018-09-21T14:00:20.162Z,13.23
2018-09-21T14:02:48.757Z,8.30
2018-09-21T14:05:17.328Z,12.33
2018-09-21T14:07:45.893Z,6.77
2018-09-21T14:10:14.469Z,19.47
2018-09-21T14:12:43.039Z,11.67
2018-09-21T14:15:11.606Z,26.73
2018-09-21T14:17:40.181Z,15.60
2018-09-21T14:20:08.761Z,8.55
2018-09-21T14:22:37.303Z,4.28
2018-09-21T14:25:05.843Z,7.17
2018-09-21T14:27:34.409Z,6.10
2018-09-21T14:30:03.833Z,6.10
2018-09-21T14:32:32.417Z,6.80
2018-09-21T14:35:00.978Z,10.00
2018-09-21T14:37:29.649Z,17.70
2018-09-21T14:39:58.177Z,5.77
2018-09-21T14:42:26.755Z,12.57
2018-09-21T14:44:55.332Z,4.60
2018-09-21T14:47:23.932Z,11.90
2018-09-21T14:49:52.475Z,5.57
2018-09-21T14:52:21.147Z,12.67
2018-09-21T14:54:49.722Z,8.43
2018-09-21T14:57:18.338Z,7.60
2018-09-21T14:59:47.091Z,6.30
2018-09-21T15:02:15.601Z,11.40
2018-09-21T15:04:44.174Z,5.83
2018-09-21T15:07:12.759Z,10.43
2018-09-21T15:09:41.341Z,6.87
2018-09-21T15:12:09.995Z,13.93
2018-09-21T15:14:38.563Z,5.50
2018-09-21T15:17:07.134Z,4.63
2018-09-21T15:19:35.682Z,9.23
2018-09-21T15:22:04.235Z,6.77
2018-09-21T15:24:32.878Z,7.83
2018-09-21T15:27:01.628Z,6.93
2018-09-21T15:29:30.217Z,6.83
2018-09-21T15:31:58.858Z,7.33
2018-09-21T15:34:27.424Z,6.90
2018-09-21T15:36:55.982Z,8.07
2018-09-21T15:39:24.548Z,5.80
2018-09-21T15:41:53.144Z,5.90
2018-09-21T15:44:21.690Z,5.30
2018-09-21T15:46:50.276Z,11.13
2018-09-21T15:49:18.987Z,7.63
2018-09-21T15:51:47.853Z,6.43
2018-09-21T15:54:16.533Z,5.77
2018-09-21T15:56:45.089Z,5.07
2018-09-21T15:59:13.645Z,11.47
2018-09-21T16:01:42.192Z,10.23
2018-09-21T16:04:10.736Z,8.37
2018-09-21T16:06:39.397Z,5.93
2018-09-21T16:09:08.985Z,5.53
2018-09-21T16:11:38.385Z,8.27
2018-09-21T16:14:07.581Z,6.70
2018-09-21T16:16:36.896Z,5.57
2018-09-21T16:19:05.662Z,7.10
2018-09-21T16:21:34.305Z,7.90
2018-09-21T16:24:02.874Z,4.97
2018-09-21T16:26:31.763Z,6.80
2018-09-21T16:29:00.331Z,7.03
2018-09-21T16:31:28.895Z,6.60
2018-09-21T16:33:57.482Z,5.70
2018-09-21T16:36:26.024Z,8.67
2018-09-21T16:38:54.604Z,21.60
2018-09-21T16:41:23.204Z,21.03
2018-09-21T16:43:51.802Z,41.20
2018-09-21T16:46:20.423Z,19.40
2018-09-21T16:48:49.003Z,28.70
2018-09-21T16:51:18.078Z,31.70
2018-09-21T16:53:46.698Z,19.13
2018-09-21T16:56:15.352Z,13.17
2018-09-21T16:58:43.933Z,23.97
2018-09-21T17:01:12.229Z,8.43
2018-09-21T17:03:40.486Z,14.73
2018-09-21T17:06:08.804Z,7.50
2018-09-21T17:08:37.071Z,8.10
2018-09-21T17:11:05.479Z,5.67
2018-09-21T17:13:33.701Z,7.20
2018-09-21T17:16:01.952Z,8.10
2018-09-21T17:18:30.307Z,7.77
2018-09-21T17:20:58.592Z,6.77
2018-09-21T17:23:26.819Z,22.83
2018-09-21T17:25:55.239Z,12.63
2018-09-21T17:28:23.548Z,10.93
2018-09-21T17:30:51.810Z,5.13
2018-09-21T17:33:20.131Z,11.90
2018-09-21T17:35:48.402Z,10.23
2018-09-21T17:38:16.745Z,18.33
2018-09-21T17:40:44.987Z,24.23
2018-09-21T17:43:13.308Z,67.20
2018-09-21T17:45:41.619Z,68.67
2018-09-21T17:48:09.953Z,58.73
2018-09-21T17:50:38.169Z,74.37
2018-09-21T17:53:06.439Z,83.00
2018-09-21T17:55:34.758Z,77.93
2018-09-21T17:58:02.980Z,81.03
2018-09-21T18:00:31.213Z,67.13
2018-09-21T18:02:59.456Z,73.47
2018-09-21T18:05:27.759Z,80.10
2018-09-21T18:07:56.005Z,101.23
2018-09-21T18:10:24.337Z,56.30
2018-09-21T18:12:52.669Z,72.37
2018-09-21T18:15:20.960Z,69.20
2018-09-21T18:17:49.262Z,49.58
2018-09-21T18:20:17.551Z,47.08
2018-09-21T18:22:45.859Z,51.20
2018-09-21T18:25:14.135Z,37.60
2018-09-21T18:27:42.458Z,40.08
2018-09-21T18:30:10.720Z,14.68
2018-09-21T18:32:38.945Z,9.88
2018-09-21T18:35:07.237Z,3.95
2018-09-21T18:37:35.479Z,7.12
2018-09-21T18:40:03.757Z,5.00
2018-09-21T18:42:31.991Z,15.65
2018-09-21T18:45:00.306Z,5.58
2018-09-21T18:47:28.520Z,8.58
2018-09-21T18:49:56.742Z,6.53
2018-09-21T18:52:25.051Z,3.37
2018-09-21T18:54:53.348Z,8.60
2018-09-21T18:57:21.564Z,8.98
2018-09-21T18:59:49.783Z,15.43
2018-09-21T19:02:18.018Z,2.00
2018-09-21T19:04:46.219Z,5.30
2018-09-21T19:07:19.842Z,3.92
2018-09-21T19:09:48.075Z,4.35
2018-09-21T19:12:16.292Z,9.95
2018-09-21T19:14:44.588Z,17.90
2018-09-21T19:17:12.812Z,9.35
2018-09-21T19:19:41.040Z,7.05
2018-09-21T19:22:09.327Z,11.12
2018-09-21T19:24:37.588Z,9.45
2018-09-21T19:27:05.850Z,7.78
2018-09-21T19:29:34.072Z,8.90
2018-09-21T19:32:02.298Z,3.42
2018-09-21T19:34:30.638Z,1.87
2018-09-21T19:36:58.957Z,6.95
2018-09-21T19:39:27.171Z,8.18
2018-09-21T19:41:55.756Z,7.08
2018-09-21T19:44:24.020Z,7.45
2018-09-21T19:46:52.254Z,2.42
2018-09-21T19:49:20.523Z,1.57
2018-09-21T19:51:48.729Z,5.83
2018-09-21T19:54:17.013Z,5.33
2018-09-21T19:56:45.347Z,4.33
2018-09-21T19:59:13.566Z,2.87
2018-09-21T20:01:41.783Z,5.62
2018-09-21T20:04:09.999Z,3.60
2018-09-21T20:06:38.206Z,6.67
2018-09-21T20:09:07.271Z,5.30
2018-09-21T20:11:35.514Z,3.87
2018-09-21T20:14:03.720Z,5.12
2018-09-21T20:16:32.002Z,3.27
2018-09-21T20:19:00.193Z,2.75
2018-09-21T20:21:28.425Z,8.68
2018-09-21T20:23:56.652Z,4.58
2018-09-21T20:26:24.877Z,2.05
2018-09-21T20:28:53.207Z,5.08
2018-09-21T20:31:26.711Z,6.33
2018-09-21T20:33:54.927Z,3.27
2018-09-21T20:36:23.948Z,4.28
2018-09-21T20:38:52.175Z,8.05
2018-09-21T20:41:20.387Z,3.27
2018-09-21T20:43:48.600Z,3.17
2018-09-21T20:46:16.833Z,6.42
2018-09-21T20:48:45.046Z,2.65
2018-09-21T20:51:13.366Z,4.25
2018-09-21T20:53:41.607Z,9.25
2018-09-21T20:56:09.882Z,6.42
2018-09-21T20:58:38.114Z,6.58
2018-09-21T21:01:06.314Z,6.62
2018-09-21T21:03:34.516Z,7.97
2018-09-21T21:06:02.746Z,6.20
2018-09-21T21:08:30.971Z,2.75
2018-09-21T21:10:59.273Z,3.65
2018-09-21T21:13:27.573Z,5.10
2018-09-21T21:15:55.814Z,4.60
2018-09-21T21:18:24.080Z,3.55
2018-09-21T21:20:52.300Z,5.97
2018-09-21T21:23:21.506Z,3.87
2018-09-21T21:25:49.732Z,8.60
2018-09-21T21:28:17.941Z,6.35
2018-09-21T21:30:46.216Z,7.22
2018-09-21T21:33:14.467Z,9.63
2018-09-21T21:35:42.680Z,6.20
2018-09-21T21:38:11.389Z,6.15
2018-09-21T21:40:39.594Z,11.20
2018-09-21T21:43:07.844Z,6.40
2018-09-21T21:45:36.154Z,3.35
2018-09-21T21:48:04.444Z,9.68
2018-09-21T21:50:32.660Z,8.08
2018-09-21T21:53:00.872Z,4.90
2018-09-21T21:55:29.124Z,6.72
2018-09-21T21:57:57.328Z,5.17
2018-09-21T22:00:29.862Z,3.33
2018-09-21T22:02:58.119Z,6.12
2018-09-21T22:05:26.359Z,8.35
2018-09-21T22:07:54.566Z,10.43
2018-09-21T22:10:22.781Z,8.63
2018-09-21T22:12:56.420Z,13.65
2018-09-21T22:15:24.622Z,7.35
2018-09-21T22:17:52.838Z,15.40
2018-09-21T22:20:21.058Z,7.60
2018-09-21T22:22:49.269Z,7.90
2018-09-21T22:25:17.486Z,18.45
2018-09-21T22:27:45.666Z,8.05
2018-09-21T22:30:13.865Z,14.68
2018-09-21T22:32:42.058Z,12.58
2018-09-21T22:35:10.305Z,12.80
2018-09-21T22:37:38.516Z,10.90
2018-09-21T22:40:06.762Z,9.05
2018-09-21T22:42:34.953Z,9.28
2018-09-21T22:45:03.231Z,15.98
2018-09-21T22:47:31.397Z,6.47
2018-09-21T22:49:59.611Z,10.20
2018-09-21T22:52:27.798Z,7.25
2018-09-21T22:54:56.042Z,11.63
2018-09-21T22:57:24.261Z,20.80
2018-09-21T22:59:52.462Z,12.95
2018-09-21T23:02:20.695Z,11.48
2018-09-21T23:04:48.888Z,13.08
2018-09-21T23:07:17.090Z,11.08
2018-09-21T23:09:45.303Z,16.57
2018-09-21T23:12:13.496Z,8.90
2018-09-21T23:14:41.712Z,14.65
2018-09-21T23:17:09.912Z,10.88
2018-09-21T23:19:38.164Z,13.00
2018-09-21T23:22:06.381Z,15.30
2018-09-21T23:24:34.604Z,10.75
2018-09-21T23:27:02.812Z,12.98
2018-09-21T23:29:31.033Z,8.98
2018-09-21T23:31:59.274Z,18.73
2018-09-21T23:34:27.532Z,10.10
2018-09-21T23:36:55.754Z,9.53
2018-09-21T23:39:23.957Z,12.53
2018-09-21T23:41:52.195Z,14.73
2018-09-21T23:44:20.397Z,12.50
2018-09-21T23:46:48.627Z,17.00
2018-09-21T23:49:17.693Z,9.45
2018-09-21T23:51:45.908Z,12.05
2018-09-21T23:54:14.173Z,10.28
2018-09-21T23:56:42.384Z,11.40
2018-09-21T23:59:10.581Z,18.75
